Dragocidental — CSYN4 — position and weather

sailwx.info

Track history (hours):
 
Tides and Currents Weather Stations Pressure Air Temp Water Temp Dewpoint Dewpoint Depression Visibility Wind Speed Wind Dir Waves Ship Positions

Dragocidental

Last reported at 2017-Jan-20 13:33 UTC. Time now 2017-Jan-20 14:08 UTC.
Position N 37°44' W 025°40'.

Length 30 m.

Type: Dredging. MMSI: 204671360.

Date/timePositionNaut miles runAvg speedWind from/ knotsBaromVisibWave heightAir tempDewpointWater temp
2017-Jan-20 13:33N 37°44' W 025°40'5 5.3
2017-Jan-20 12:34N 37°46' W 025°46'2 1.8
2017-Jan-20 11:33N 37°48' W 025°48'1 0.5
2017-Jan-20 10:33N 37°47' W 025°47'6 5.8
2017-Jan-20 09:33N 37°44' W 025°41'1 1.1
2017-Jan-20 08:31N 37°44' W 025°40'0 0.0
2017-Jan-20 07:31N 37°44' W 025°40'0 0.0
2017-Jan-20 06:31N 37°44' W 025°40'0 0.0
2017-Jan-20 05:31N 37°44' W 025°40'0 0.0
2017-Jan-20 04:31N 37°44' W 025°40'0 0.0
2017-Jan-20 03:31N 37°44' W 025°40'0 0.0
2017-Jan-20 02:31N 37°44' W 025°40'0 0.0
2017-Jan-20 01:31N 37°44' W 025°40'0 0.0
2017-Jan-20 00:31N 37°44' W 025°40'0 0.0
2017-Jan-19 23:31N 37°44' W 025°40'0 0.0
2017-Jan-19 22:31N 37°44' W 025°40'0 0.0
2017-Jan-19 21:31N 37°44' W 025°40'0 0.0
2017-Jan-19 20:32N 37°44' W 025°40'0 0.0
2017-Jan-19 19:31N 37°44' W 025°40'0 0.0
2017-Jan-19 18:31N 37°44' W 025°40'0 0.0
2017-Jan-19 17:31N 37°44' W 025°40'0 0.0
2017-Jan-19 16:31N 37°44' W 025°40'0 0.0
2017-Jan-19 15:31N 37°44' W 025°40'0 0.0
2017-Jan-19 14:32N 37°44' W 025°40'2 1.9
2017-Jan-19 13:33N 37°44' W 025°42'5 4.8
2017-Jan-19 12:33N 37°47' W 025°47'1 0.9
2017-Jan-19 11:32N 37°48' W 025°48'0 0.4
2017-Jan-19 10:33N 37°48' W 025°47'6 6.3
2017-Jan-19 09:33N 37°44' W 025°41'1 1.0
2017-Jan-19 08:33N 37°44' W 025°40'0 0.0
2017-Jan-19 07:33N 37°44' W 025°40'0 0.0
2017-Jan-19 06:33N 37°44' W 025°40'0 0.0
2017-Jan-19 05:30N 37°44' W 025°40'0 0.0
2017-Jan-19 04:33N 37°44' W 025°40'0 0.0
2017-Jan-19 03:32N 37°44' W 025°40'0 0.0
2017-Jan-19 02:33N 37°44' W 025°40'0 0.0
2017-Jan-19 01:33N 37°44' W 025°40'0 0.0
2017-Jan-19 00:33N 37°44' W 025°40'0 0.0
2017-Jan-18 23:33N 37°44' W 025°40'0 0.0
2017-Jan-18 22:33N 37°44' W 025°40'0 0.0
2017-Jan-18 21:33N 37°44' W 025°40'0 0.0
2017-Jan-18 20:33N 37°44' W 025°40'0 0.0
2017-Jan-18 19:33N 37°44' W 025°40'0 0.0
2017-Jan-18 18:33N 37°44' W 025°40'0 0.0
2017-Jan-18 17:33N 37°44' W 025°40'0 0.0
2017-Jan-18 16:33N 37°44' W 025°40'0 0.0
2017-Jan-18 15:33N 37°44' W 025°40'0 0.0
2017-Jan-18 14:33N 37°44' W 025°40'1 1.2
2017-Jan-18 13:33N 37°44' W 025°41'5 4.6
2017-Jan-18 12:33N 37°46' W 025°46'2 1.8
2017-Jan-18 11:33N 37°48' W 025°48'0 0.2
2017-Jan-18 10:33N 37°48' W 025°47'6 6.4
2017-Jan-18 09:33N 37°44' W 025°41'1 1.0
2017-Jan-18 08:31N 37°44' W 025°40'0 0.0
2017-Jan-18 07:31N 37°44' W 025°40'0 0.0
2017-Jan-18 06:31N 37°44' W 025°40'0 0.0
2017-Jan-18 05:31N 37°44' W 025°40'0 0.0
2017-Jan-18 04:31N 37°44' W 025°40'0 0.0
2017-Jan-18 03:31N 37°44' W 025°40'0 0.0
2017-Jan-18 02:31N 37°44' W 025°40'0 0.0
2017-Jan-18 01:31N 37°44' W 025°40'0 0.0
2017-Jan-18 00:31N 37°44' W 025°40'0 0.0
2017-Jan-17 23:31N 37°44' W 025°40'0 0.0
2017-Jan-17 22:31N 37°44' W 025°40'0 0.0
2017-Jan-17 21:31N 37°44' W 025°40'0 0.0
2017-Jan-17 20:31N 37°44' W 025°40'0 0.0
2017-Jan-17 19:31N 37°44' W 025°40'0 0.0
2017-Jan-17 18:31N 37°44' W 025°40'0 0.0
2017-Jan-17 17:31N 37°44' W 025°40'0 0.0
2017-Jan-17 16:31N 37°44' W 025°40'0 0.0
2017-Jan-17 15:28N 37°44' W 025°40'0 0.0
2017-Jan-17 14:31N 37°44' W 025°40'0 0.0
2017-Jan-17 13:31N 37°44' W 025°40'0 0.1
2017-Jan-17 12:33N 37°44' W 025°40'0 0.2
2017-Jan-17 11:31N 37°44' W 025°40'0 0.0
2017-Jan-17 10:31N 37°44' W 025°40'0 0.0
2017-Jan-17 09:31N 37°44' W 025°40'0 0.0
2017-Jan-17 08:31N 37°44' W 025°40'0 0.0
2017-Jan-17 07:31N 37°44' W 025°40'0 0.0
2017-Jan-17 06:31N 37°44' W 025°40'0 0.0
2017-Jan-17 05:31N 37°44' W 025°40'0 0.0
2017-Jan-17 04:31N 37°44' W 025°40'0 0.0
2017-Jan-17 03:31N 37°44' W 025°40'0 0.0
2017-Jan-17 02:31N 37°44' W 025°40'0 0.0
2017-Jan-17 01:31N 37°44' W 025°40'0 0.0
2017-Jan-17 00:31N 37°44' W 025°40'0 0.0
2017-Jan-16 23:31N 37°44' W 025°40'0 0.0
2017-Jan-16 22:31N 37°44' W 025°40'0 0.0
2017-Jan-16 21:31N 37°44' W 025°40'0 0.0
2017-Jan-16 20:31N 37°44' W 025°40'0 0.0
2017-Jan-16 19:31N 37°44' W 025°40'0 0.0
2017-Jan-16 18:31N 37°44' W 025°40'0 0.0
2017-Jan-16 17:31N 37°44' W 025°40'0 0.0
2017-Jan-16 16:31N 37°44' W 025°40'0 0.0
2017-Jan-16 15:31N 37°44' W 025°40'0 0.0
2017-Jan-16 14:31N 37°44' W 025°40'0 0.0
2017-Jan-16 13:31N 37°44' W 025°40'0 0.0
2017-Jan-16 12:31N 37°44' W 025°40'0 0.0
2017-Jan-16 11:31N 37°44' W 025°40'0 0.0
2017-Jan-16 10:31N 37°44' W 025°40'0 0.0
2017-Jan-16 09:31N 37°44' W 025°40'0 0.0
2017-Jan-16 08:31N 37°44' W 025°40'0 0.0
2017-Jan-16 07:31N 37°44' W 025°40'0 0.0
2017-Jan-16 06:31N 37°44' W 025°40'0 0.0
2017-Jan-16 05:32N 37°44' W 025°40'0 0.0
2017-Jan-16 04:31N 37°44' W 025°40'0 0.0
2017-Jan-16 03:31N 37°44' W 025°40'0 0.0
2017-Jan-16 02:31N 37°44' W 025°40'0 0.0
2017-Jan-16 01:31N 37°44' W 025°40'0 0.0
2017-Jan-16 00:31N 37°44' W 025°40'0 0.0
2017-Jan-15 23:31N 37°44' W 025°40'0 0.0
2017-Jan-15 22:31N 37°44' W 025°40'0 0.0
2017-Jan-15 21:31N 37°44' W 025°40'0 0.0
2017-Jan-15 20:31N 37°44' W 025°40'0 0.0
2017-Jan-15 19:32N 37°44' W 025°40'0 0.0
2017-Jan-15 18:31N 37°44' W 025°40'0 0.0
2017-Jan-15 17:32N 37°44' W 025°40'0 0.0
2017-Jan-15 16:32N 37°44' W 025°40'0 0.0
2017-Jan-15 15:32N 37°44' W 025°40'0 0.0
2017-Jan-15 14:31N 37°44' W 025°40'0 0.0
2017-Jan-15 13:32N 37°44' W 025°40'0 0.0
2017-Jan-15 12:32N 37°44' W 025°40'0 0.0
2017-Jan-15 11:32N 37°44' W 025°40'0 0.0
2017-Jan-15 10:31N 37°44' W 025°40'0 0.0
2017-Jan-15 09:32N 37°44' W 025°40'0 0.0
2017-Jan-15 08:31N 37°44' W 025°40'0 0.0
2017-Jan-15 07:32N 37°44' W 025°40'0 0.0
2017-Jan-15 06:32N 37°44' W 025°40'0 0.0
2017-Jan-15 05:32N 37°44' W 025°40'0 0.0
2017-Jan-15 04:32N 37°44' W 025°40'0 0.0
2017-Jan-15 03:32N 37°44' W 025°40'0 0.0
2017-Jan-15 02:32N 37°44' W 025°40'0 0.0
2017-Jan-15 01:32N 37°44' W 025°40'0 0.0
2017-Jan-15 00:32N 37°44' W 025°40'0 0.0
2017-Jan-14 23:32N 37°44' W 025°40'0 0.0
2017-Jan-14 22:32N 37°44' W 025°40'0 0.0
2017-Jan-14 21:32N 37°44' W 025°40'0 0.0
2017-Jan-14 20:32N 37°44' W 025°40'0 0.0
2017-Jan-14 19:32N 37°44' W 025°40'0 0.0
2017-Jan-14 18:32N 37°44' W 025°40'0 0.0
2017-Jan-14 17:32N 37°44' W 025°40'0 0.0
2017-Jan-14 16:32N 37°44' W 025°40'0 0.0
2017-Jan-14 15:32N 37°44' W 025°40'0 0.0
2017-Jan-14 14:32N 37°44' W 025°40'0 0.0
2017-Jan-14 13:32N 37°44' W 025°40'0 0.0
2017-Jan-14 12:32N 37°44' W 025°40'0 0.0
2017-Jan-14 11:32N 37°44' W 025°40'0 0.0
2017-Jan-14 10:32N 37°44' W 025°40'0 0.0
2017-Jan-14 09:32N 37°44' W 025°40'0 0.0
2017-Jan-14 08:32N 37°44' W 025°40'0 0.0
2017-Jan-14 07:32N 37°44' W 025°40'0 0.0
2017-Jan-14 06:32N 37°44' W 025°40'0 0.0
2017-Jan-14 05:32N 37°44' W 025°40'0 0.0
2017-Jan-14 04:32N 37°44' W 025°40'0 0.0
2017-Jan-14 03:32N 37°44' W 025°40'0 0.0
2017-Jan-13 23:32N 37°44' W 025°40'0 0.0
2017-Jan-13 22:32N 37°44' W 025°40'0 0.0
2017-Jan-13 21:32N 37°44' W 025°40'0 0.0
2017-Jan-13 20:32N 37°44' W 025°40'0 0.0
2017-Jan-13 19:32N 37°44' W 025°40'0 0.0
2017-Jan-13 18:32N 37°44' W 025°40'0 0.0
2017-Jan-13 17:32N 37°44' W 025°40'0 0.0
2017-Jan-13 16:32N 37°44' W 025°40'0 0.0
2017-Jan-13 15:32N 37°44' W 025°40'0 0.0
2017-Jan-13 14:32N 37°44' W 025°40'1 0.6
2017-Jan-13 13:33N 37°44' W 025°39'4 4.3
2017-Jan-13 12:33N 37°45' W 025°45'3 3.3
2017-Jan-13 11:31N 37°48' W 025°48'0 0.0
2017-Jan-13 10:33N 37°48' W 025°47'7 6.6
2017-Jan-13 09:34N 37°44' W 025°41'1 0.7
2017-Jan-13 08:31N 37°44' W 025°40'0 0.0
2017-Jan-13 07:31N 37°44' W 025°40'0 0.0
2017-Jan-13 06:31N 37°44' W 025°40'0 0.0
2017-Jan-13 05:31N 37°44' W 025°40'0 0.0
2017-Jan-13 04:31N 37°44' W 025°40'0 0.0
2017-Jan-13 03:31N 37°44' W 025°40'0 0.0
2017-Jan-13 02:31N 37°44' W 025°40'0 0.0
2017-Jan-13 01:31N 37°44' W 025°40'0 0.0
2017-Jan-13 00:31N 37°44' W 025°40'0 0.0
2017-Jan-12 23:31N 37°44' W 025°40'0 0.0
2017-Jan-12 22:31N 37°44' W 025°40'0 0.0
2017-Jan-12 21:31N 37°44' W 025°40'0 0.0
2017-Jan-12 20:31N 37°44' W 025°40'0 0.0
2017-Jan-12 19:31N 37°44' W 025°40'0 0.0
2017-Jan-12 18:31N 37°44' W 025°40'0 0.0
2017-Jan-12 17:31N 37°44' W 025°40'0 0.0
2017-Jan-12 16:31N 37°44' W 025°40'0 0.0
2017-Jan-12 15:31N 37°44' W 025°40'0 0.0
2017-Jan-12 14:31N 37°44' W 025°40'2 1.9
2017-Jan-12 13:33N 37°44' W 025°42'  
Track history (hours):
 
Tides and Currents Weather Stations Pressure Air Temp Water Temp Dewpoint Dewpoint Depression Visibility Wind Speed Wind Dir Waves Ship Positions

Dragocidental

Last reported at 2017-Jan-20 13:33 UTC. Time now 2017-Jan-20 14:08 UTC.
Position N 37°44' W 025°40'.

Length 30 m.

Type: Dredging. MMSI: 204671360.

Date/timePositionNaut miles runAvg speedWind from/ knotsBaromVisibWave heightAir tempDewpointWater temp
2017-Jan-20 13:33N 37°44' W 025°40'5 5.3
2017-Jan-20 12:34N 37°46' W 025°46'2 1.8
2017-Jan-20 11:33N 37°48' W 025°48'1 0.5
2017-Jan-20 10:33N 37°47' W 025°47'6 5.8
2017-Jan-20 09:33N 37°44' W 025°41'1 1.1
2017-Jan-20 08:31N 37°44' W 025°40'0 0.0
2017-Jan-20 07:31N 37°44' W 025°40'0 0.0
2017-Jan-20 06:31N 37°44' W 025°40'0 0.0
2017-Jan-20 05:31N 37°44' W 025°40'0 0.0
2017-Jan-20 04:31N 37°44' W 025°40'0 0.0
2017-Jan-20 03:31N 37°44' W 025°40'0 0.0
2017-Jan-20 02:31N 37°44' W 025°40'0 0.0
2017-Jan-20 01:31N 37°44' W 025°40'0 0.0
2017-Jan-20 00:31N 37°44' W 025°40'0 0.0
2017-Jan-19 23:31N 37°44' W 025°40'0 0.0
2017-Jan-19 22:31N 37°44' W 025°40'0 0.0
2017-Jan-19 21:31N 37°44' W 025°40'0 0.0
2017-Jan-19 20:32N 37°44' W 025°40'0 0.0
2017-Jan-19 19:31N 37°44' W 025°40'0 0.0
2017-Jan-19 18:31N 37°44' W 025°40'0 0.0
2017-Jan-19 17:31N 37°44' W 025°40'0 0.0
2017-Jan-19 16:31N 37°44' W 025°40'0 0.0
2017-Jan-19 15:31N 37°44' W 025°40'0 0.0
2017-Jan-19 14:32N 37°44' W 025°40'2 1.9
2017-Jan-19 13:33N 37°44' W 025°42'5 4.8
2017-Jan-19 12:33N 37°47' W 025°47'1 0.9
2017-Jan-19 11:32N 37°48' W 025°48'0 0.4
2017-Jan-19 10:33N 37°48' W 025°47'6 6.3
2017-Jan-19 09:33N 37°44' W 025°41'1 1.0
2017-Jan-19 08:33N 37°44' W 025°40'0 0.0
2017-Jan-19 07:33N 37°44' W 025°40'0 0.0
2017-Jan-19 06:33N 37°44' W 025°40'0 0.0
2017-Jan-19 05:30N 37°44' W 025°40'0 0.0
2017-Jan-19 04:33N 37°44' W 025°40'0 0.0
2017-Jan-19 03:32N 37°44' W 025°40'0 0.0
2017-Jan-19 02:33N 37°44' W 025°40'0 0.0
2017-Jan-19 01:33N 37°44' W 025°40'0 0.0
2017-Jan-19 00:33N 37°44' W 025°40'0 0.0
2017-Jan-18 23:33N 37°44' W 025°40'0 0.0
2017-Jan-18 22:33N 37°44' W 025°40'0 0.0
2017-Jan-18 21:33N 37°44' W 025°40'0 0.0
2017-Jan-18 20:33N 37°44' W 025°40'0 0.0
2017-Jan-18 19:33N 37°44' W 025°40'0 0.0
2017-Jan-18 18:33N 37°44' W 025°40'0 0.0
2017-Jan-18 17:33N 37°44' W 025°40'0 0.0
2017-Jan-18 16:33N 37°44' W 025°40'0 0.0
2017-Jan-18 15:33N 37°44' W 025°40'0 0.0
2017-Jan-18 14:33N 37°44' W 025°40'1 1.2
2017-Jan-18 13:33N 37°44' W 025°41'5 4.6
2017-Jan-18 12:33N 37°46' W 025°46'2 1.8
2017-Jan-18 11:33N 37°48' W 025°48'0 0.2
2017-Jan-18 10:33N 37°48' W 025°47'6 6.4
2017-Jan-18 09:33N 37°44' W 025°41'1 1.0
2017-Jan-18 08:31N 37°44' W 025°40'0 0.0
2017-Jan-18 07:31N 37°44' W 025°40'0 0.0
2017-Jan-18 06:31N 37°44' W 025°40'0 0.0
2017-Jan-18 05:31N 37°44' W 025°40'0 0.0
2017-Jan-18 04:31N 37°44' W 025°40'0 0.0
2017-Jan-18 03:31N 37°44' W 025°40'0 0.0
2017-Jan-18 02:31N 37°44' W 025°40'0 0.0
2017-Jan-18 01:31N 37°44' W 025°40'0 0.0
2017-Jan-18 00:31N 37°44' W 025°40'0 0.0
2017-Jan-17 23:31N 37°44' W 025°40'0 0.0
2017-Jan-17 22:31N 37°44' W 025°40'0 0.0
2017-Jan-17 21:31N 37°44' W 025°40'0 0.0
2017-Jan-17 20:31N 37°44' W 025°40'0 0.0
2017-Jan-17 19:31N 37°44' W 025°40'0 0.0
2017-Jan-17 18:31N 37°44' W 025°40'0 0.0
2017-Jan-17 17:31N 37°44' W 025°40'0 0.0
2017-Jan-17 16:31N 37°44' W 025°40'0 0.0
2017-Jan-17 15:28N 37°44' W 025°40'0 0.0
2017-Jan-17 14:31N 37°44' W 025°40'0 0.0
2017-Jan-17 13:31N 37°44' W 025°40'0 0.1
2017-Jan-17 12:33N 37°44' W 025°40'0 0.2
2017-Jan-17 11:31N 37°44' W 025°40'0 0.0
2017-Jan-17 10:31N 37°44' W 025°40'0 0.0
2017-Jan-17 09:31N 37°44' W 025°40'0 0.0
2017-Jan-17 08:31N 37°44' W 025°40'0 0.0
2017-Jan-17 07:31N 37°44' W 025°40'0 0.0
2017-Jan-17 06:31N 37°44' W 025°40'0 0.0
2017-Jan-17 05:31N 37°44' W 025°40'0 0.0
2017-Jan-17 04:31N 37°44' W 025°40'0 0.0
2017-Jan-17 03:31N 37°44' W 025°40'0 0.0
2017-Jan-17 02:31N 37°44' W 025°40'0 0.0
2017-Jan-17 01:31N 37°44' W 025°40'0 0.0
2017-Jan-17 00:31N 37°44' W 025°40'0 0.0
2017-Jan-16 23:31N 37°44' W 025°40'0 0.0
2017-Jan-16 22:31N 37°44' W 025°40'0 0.0
2017-Jan-16 21:31N 37°44' W 025°40'0 0.0
2017-Jan-16 20:31N 37°44' W 025°40'0 0.0
2017-Jan-16 19:31N 37°44' W 025°40'0 0.0
2017-Jan-16 18:31N 37°44' W 025°40'0 0.0
2017-Jan-16 17:31N 37°44' W 025°40'0 0.0
2017-Jan-16 16:31N 37°44' W 025°40'0 0.0
2017-Jan-16 15:31N 37°44' W 025°40'0 0.0
2017-Jan-16 14:31N 37°44' W 025°40'0 0.0
2017-Jan-16 13:31N 37°44' W 025°40'0 0.0
2017-Jan-16 12:31N 37°44' W 025°40'0 0.0
2017-Jan-16 11:31N 37°44' W 025°40'0 0.0
2017-Jan-16 10:31N 37°44' W 025°40'0 0.0
2017-Jan-16 09:31N 37°44' W 025°40'0 0.0
2017-Jan-16 08:31N 37°44' W 025°40'0 0.0
2017-Jan-16 07:31N 37°44' W 025°40'0 0.0
2017-Jan-16 06:31N 37°44' W 025°40'0 0.0
2017-Jan-16 05:32N 37°44' W 025°40'0 0.0
2017-Jan-16 04:31N 37°44' W 025°40'0 0.0
2017-Jan-16 03:31N 37°44' W 025°40'0 0.0
2017-Jan-16 02:31N 37°44' W 025°40'0 0.0
2017-Jan-16 01:31N 37°44' W 025°40'0 0.0
2017-Jan-16 00:31N 37°44' W 025°40'0 0.0
2017-Jan-15 23:31N 37°44' W 025°40'0 0.0
2017-Jan-15 22:31N 37°44' W 025°40'0 0.0
2017-Jan-15 21:31N 37°44' W 025°40'0 0.0
2017-Jan-15 20:31N 37°44' W 025°40'0 0.0
2017-Jan-15 19:32N 37°44' W 025°40'0 0.0
2017-Jan-15 18:31N 37°44' W 025°40'0 0.0
2017-Jan-15 17:32N 37°44' W 025°40'0 0.0
2017-Jan-15 16:32N 37°44' W 025°40'0 0.0
2017-Jan-15 15:32N 37°44' W 025°40'0 0.0
2017-Jan-15 14:31N 37°44' W 025°40'0 0.0
2017-Jan-15 13:32N 37°44' W 025°40'0 0.0
2017-Jan-15 12:32N 37°44' W 025°40'0 0.0
2017-Jan-15 11:32N 37°44' W 025°40'0 0.0
2017-Jan-15 10:31N 37°44' W 025°40'0 0.0
2017-Jan-15 09:32N 37°44' W 025°40'0 0.0
2017-Jan-15 08:31N 37°44' W 025°40'0 0.0
2017-Jan-15 07:32N 37°44' W 025°40'0 0.0
2017-Jan-15 06:32N 37°44' W 025°40'0 0.0
2017-Jan-15 05:32N 37°44' W 025°40'0 0.0
2017-Jan-15 04:32N 37°44' W 025°40'0 0.0
2017-Jan-15 03:32N 37°44' W 025°40'0 0.0
2017-Jan-15 02:32N 37°44' W 025°40'0 0.0
2017-Jan-15 01:32N 37°44' W 025°40'0 0.0
2017-Jan-15 00:32N 37°44' W 025°40'0 0.0
2017-Jan-14 23:32N 37°44' W 025°40'0 0.0
2017-Jan-14 22:32N 37°44' W 025°40'0 0.0
2017-Jan-14 21:32N 37°44' W 025°40'0 0.0
2017-Jan-14 20:32N 37°44' W 025°40'0 0.0
2017-Jan-14 19:32N 37°44' W 025°40'0 0.0
2017-Jan-14 18:32N 37°44' W 025°40'0 0.0
2017-Jan-14 17:32N 37°44' W 025°40'0 0.0
2017-Jan-14 16:32N 37°44' W 025°40'0 0.0
2017-Jan-14 15:32N 37°44' W 025°40'0 0.0
2017-Jan-14 14:32N 37°44' W 025°40'0 0.0
2017-Jan-14 13:32N 37°44' W 025°40'0 0.0
2017-Jan-14 12:32N 37°44' W 025°40'0 0.0
2017-Jan-14 11:32N 37°44' W 025°40'0 0.0
2017-Jan-14 10:32N 37°44' W 025°40'0 0.0
2017-Jan-14 09:32N 37°44' W 025°40'0 0.0
2017-Jan-14 08:32N 37°44' W 025°40'0 0.0
2017-Jan-14 07:32N 37°44' W 025°40'0 0.0
2017-Jan-14 06:32N 37°44' W 025°40'0 0.0
2017-Jan-14 05:32N 37°44' W 025°40'0 0.0
2017-Jan-14 04:32N 37°44' W 025°40'0 0.0
2017-Jan-14 03:32N 37°44' W 025°40'0 0.0
2017-Jan-13 23:32N 37°44' W 025°40'0 0.0
2017-Jan-13 22:32N 37°44' W 025°40'0 0.0
2017-Jan-13 21:32N 37°44' W 025°40'0 0.0
2017-Jan-13 20:32N 37°44' W 025°40'0 0.0
2017-Jan-13 19:32N 37°44' W 025°40'0 0.0
2017-Jan-13 18:32N 37°44' W 025°40'0 0.0
2017-Jan-13 17:32N 37°44' W 025°40'0 0.0
2017-Jan-13 16:32N 37°44' W 025°40'0 0.0
2017-Jan-13 15:32N 37°44' W 025°40'0 0.0
2017-Jan-13 14:32N 37°44' W 025°40'1 0.6
2017-Jan-13 13:33N 37°44' W 025°39'4 4.3
2017-Jan-13 12:33N 37°45' W 025°45'3 3.3
2017-Jan-13 11:31N 37°48' W 025°48'0 0.0
2017-Jan-13 10:33N 37°48' W 025°47'7 6.6
2017-Jan-13 09:34N 37°44' W 025°41'1 0.7
2017-Jan-13 08:31N 37°44' W 025°40'0 0.0
2017-Jan-13 07:31N 37°44' W 025°40'0 0.0
2017-Jan-13 06:31N 37°44' W 025°40'0 0.0
2017-Jan-13 05:31N 37°44' W 025°40'0 0.0
2017-Jan-13 04:31N 37°44' W 025°40'0 0.0
2017-Jan-13 03:31N 37°44' W 025°40'0 0.0
2017-Jan-13 02:31N 37°44' W 025°40'0 0.0
2017-Jan-13 01:31N 37°44' W 025°40'0 0.0
2017-Jan-13 00:31N 37°44' W 025°40'0 0.0
2017-Jan-12 23:31N 37°44' W 025°40'0 0.0
2017-Jan-12 22:31N 37°44' W 025°40'0 0.0
2017-Jan-12 21:31N 37°44' W 025°40'0 0.0
2017-Jan-12 20:31N 37°44' W 025°40'0 0.0
2017-Jan-12 19:31N 37°44' W 025°40'0 0.0
2017-Jan-12 18:31N 37°44' W 025°40'0 0.0
2017-Jan-12 17:31N 37°44' W 025°40'0 0.0
2017-Jan-12 16:31N 37°44' W 025°40'0 0.0
2017-Jan-12 15:31N 37°44' W 025°40'0 0.0
2017-Jan-12 14:31N 37°44' W 025°40'2 1.9
2017-Jan-12 13:33N 37°44' W 025°42'  

Dump ship's entire track history